sensor_id;sensor_type;location;lat;lon;timestamp;P1;durP1;ratioP1;P2;durP2;ratioP2
22359;SDS011;11347;52.030;4.690;2022-11-21T00:00:30;6.73;;;4.33;;
22359;SDS011;11347;52.030;4.690;2022-11-21T00:02:56;8.13;;;4.33;;
22359;SDS011;11347;52.030;4.690;2022-11-21T00:05:25;7.57;;;4.33;;
22359;SDS011;11347;52.030;4.690;2022-11-21T00:07:51;7.73;;;4.43;;
22359;SDS011;11347;52.030;4.690;2022-11-21T00:10:16;6.67;;;4.20;;
22359;SDS011;11347;52.030;4.690;2022-11-21T00:12:42;7.30;;;4.63;;
22359;SDS011;11347;52.030;4.690;2022-11-21T00:15:07;6.13;;;4.23;;
22359;SDS011;11347;52.030;4.690;2022-11-21T00:17:34;6.80;;;4.47;;
22359;SDS011;11347;52.030;4.690;2022-11-21T00:19:59;7.77;;;4.30;;
22359;SDS011;11347;52.030;4.690;2022-11-21T00:22:25;8.17;;;5.00;;
22359;SDS011;11347;52.030;4.690;2022-11-21T00:24:50;7.40;;;4.70;;
22359;SDS011;11347;52.030;4.690;2022-11-21T00:27:16;6.80;;;4.27;;
22359;SDS011;11347;52.030;4.690;2022-11-21T00:29:41;7.63;;;4.47;;
22359;SDS011;11347;52.030;4.690;2022-11-21T00:32:07;8.10;;;5.00;;
22359;SDS011;11347;52.030;4.690;2022-11-21T00:34:32;7.20;;;4.60;;
22359;SDS011;11347;52.030;4.690;2022-11-21T00:36:58;7.93;;;5.03;;
22359;SDS011;11347;52.030;4.690;2022-11-21T00:39:23;7.87;;;4.80;;
22359;SDS011;11347;52.030;4.690;2022-11-21T00:41:49;7.80;;;4.93;;
22359;SDS011;11347;52.030;4.690;2022-11-21T00:44:14;8.20;;;4.53;;
22359;SDS011;11347;52.030;4.690;2022-11-21T00:46:40;8.20;;;4.67;;
22359;SDS011;11347;52.030;4.690;2022-11-21T00:49:05;8.37;;;4.97;;
22359;SDS011;11347;52.030;4.690;2022-11-21T00:51:31;8.67;;;5.37;;
22359;SDS011;11347;52.030;4.690;2022-11-21T00:53:56;8.57;;;4.97;;
22359;SDS011;11347;52.030;4.690;2022-11-21T00:56:22;7.90;;;5.57;;
22359;SDS011;11347;52.030;4.690;2022-11-21T00:58:47;7.30;;;4.87;;
22359;SDS011;11347;52.030;4.690;2022-11-21T01:01:13;6.87;;;4.70;;
22359;SDS011;11347;52.030;4.690;2022-11-21T01:03:40;8.43;;;5.03;;
22359;SDS011;11347;52.030;4.690;2022-11-21T01:06:07;9.10;;;5.30;;
22359;SDS011;11347;52.030;4.690;2022-11-21T01:08:35;9.37;;;5.13;;
22359;SDS011;11347;52.030;4.690;2022-11-21T01:11:06;8.53;;;5.07;;
22359;SDS011;11347;52.030;4.690;2022-11-21T01:13:34;8.30;;;5.00;;
22359;SDS011;11347;52.030;4.690;2022-11-21T01:16:08;9.00;;;5.30;;
22359;SDS011;11347;52.030;4.690;2022-11-21T01:18:35;9.00;;;5.33;;
22359;SDS011;11347;52.030;4.690;2022-11-21T01:21:01;9.63;;;6.00;;
22359;SDS011;11347;52.030;4.690;2022-11-21T01:23:31;11.33;;;6.37;;
22359;SDS011;11347;52.030;4.690;2022-11-21T01:26:00;11.50;;;6.57;;
22359;SDS011;11347;52.030;4.690;2022-11-21T01:28:30;10.33;;;6.10;;
22359;SDS011;11347;52.030;4.690;2022-11-21T01:31:06;10.43;;;5.93;;
22359;SDS011;11347;52.030;4.690;2022-11-21T01:33:42;10.77;;;6.10;;
22359;SDS011;11347;52.030;4.690;2022-11-21T01:36:12;9.77;;;6.13;;
22359;SDS011;11347;52.030;4.690;2022-11-21T01:38:40;9.27;;;6.00;;
22359;SDS011;11347;52.030;4.690;2022-11-21T01:41:08;11.30;;;6.23;;
22359;SDS011;11347;52.030;4.690;2022-11-21T01:43:35;11.43;;;6.87;;
22359;SDS011;11347;52.030;4.690;2022-11-21T01:56:42;10.40;;;6.20;;
22359;SDS011;11347;52.030;4.690;2022-11-21T01:59:17;10.47;;;6.27;;
22359;SDS011;11347;52.030;4.690;2022-11-21T02:01:51;10.90;;;6.50;;
22359;SDS011;11347;52.030;4.690;2022-11-21T02:04:20;10.07;;;6.03;;
22359;SDS011;11347;52.030;4.690;2022-11-21T02:06:49;12.20;;;7.20;;
22359;SDS011;11347;52.030;4.690;2022-11-21T02:09:15;11.87;;;6.83;;
22359;SDS011;11347;52.030;4.690;2022-11-21T02:11:43;13.03;;;6.87;;
22359;SDS011;11347;52.030;4.690;2022-11-21T02:14:13;11.13;;;6.20;;
22359;SDS011;11347;52.030;4.690;2022-11-21T02:16:39;15.50;;;6.83;;
22359;SDS011;11347;52.030;4.690;2022-11-21T02:19:07;12.50;;;6.80;;
22359;SDS011;11347;52.030;4.690;2022-11-21T02:24:23;11.83;;;6.93;;
22359;SDS011;11347;52.030;4.690;2022-11-21T02:27:10;11.17;;;6.17;;
22359;SDS011;11347;52.030;4.690;2022-11-21T02:29:36;12.30;;;6.23;;
22359;SDS011;11347;52.030;4.690;2022-11-21T02:32:04;10.27;;;6.40;;
22359;SDS011;11347;52.030;4.690;2022-11-21T02:34:30;9.30;;;5.90;;
22359;SDS011;11347;52.030;4.690;2022-11-21T02:36:59;9.83;;;6.10;;
22359;SDS011;11347;52.030;4.690;2022-11-21T02:39:27;9.90;;;5.87;;
22359;SDS011;11347;52.030;4.690;2022-11-21T02:42:44;9.73;;;6.17;;
22359;SDS011;11347;52.030;4.690;2022-11-21T02:44:56;10.23;;;5.73;;
22359;SDS011;11347;52.030;4.690;2022-11-21T02:47:28;11.23;;;6.43;;
22359;SDS011;11347;52.030;4.690;2022-11-21T02:52:22;11.20;;;6.20;;
22359;SDS011;11347;52.030;4.690;2022-11-21T02:54:48;14.57;;;6.43;;
22359;SDS011;11347;52.030;4.690;2022-11-21T02:57:13;12.33;;;5.83;;
22359;SDS011;11347;52.030;4.690;2022-11-21T02:59:39;11.03;;;6.47;;
22359;SDS011;11347;52.030;4.690;2022-11-21T03:02:04;12.10;;;6.50;;
22359;SDS011;11347;52.030;4.690;2022-11-21T03:04:30;10.90;;;6.63;;
22359;SDS011;11347;52.030;4.690;2022-11-21T03:06:55;10.17;;;5.77;;
22359;SDS011;11347;52.030;4.690;2022-11-21T03:09:21;9.37;;;6.03;;
22359;SDS011;11347;52.030;4.690;2022-11-21T03:11:46;13.30;;;6.53;;
22359;SDS011;11347;52.030;4.690;2022-11-21T03:14:12;11.67;;;6.67;;
22359;SDS011;11347;52.030;4.690;2022-11-21T03:16:37;9.60;;;5.77;;
22359;SDS011;11347;52.030;4.690;2022-11-21T03:19:03;8.93;;;5.63;;
22359;SDS011;11347;52.030;4.690;2022-11-21T03:21:28;11.00;;;6.53;;
22359;SDS011;11347;52.030;4.690;2022-11-21T03:23:54;10.43;;;6.07;;
22359;SDS011;11347;52.030;4.690;2022-11-21T03:26:19;11.30;;;6.27;;
22359;SDS011;11347;52.030;4.690;2022-11-21T03:28:45;10.33;;;6.40;;
22359;SDS011;11347;52.030;4.690;2022-11-21T03:31:10;12.47;;;6.63;;
22359;SDS011;11347;52.030;4.690;2022-11-21T03:33:36;10.70;;;6.47;;
22359;SDS011;11347;52.030;4.690;2022-11-21T03:36:01;10.03;;;6.43;;
22359;SDS011;11347;52.030;4.690;2022-11-21T03:38:27;10.97;;;5.97;;
22359;SDS011;11347;52.030;4.690;2022-11-21T03:40:53;11.33;;;7.10;;
22359;SDS011;11347;52.030;4.690;2022-11-21T03:43:18;9.00;;;5.47;;
22359;SDS011;11347;52.030;4.690;2022-11-21T03:45:46;10.80;;;6.57;;
22359;SDS011;11347;52.030;4.690;2022-11-21T03:48:13;14.17;;;6.53;;
22359;SDS011;11347;52.030;4.690;2022-11-21T03:50:42;11.03;;;5.97;;
22359;SDS011;11347;52.030;4.690;2022-11-21T03:53:08;10.47;;;6.73;;
22359;SDS011;11347;52.030;4.690;2022-11-21T03:55:34;9.23;;;6.07;;
22359;SDS011;11347;52.030;4.690;2022-11-21T03:57:59;10.90;;;6.83;;
22359;SDS011;11347;52.030;4.690;2022-11-21T04:00:25;9.83;;;6.10;;
22359;SDS011;11347;52.030;4.690;2022-11-21T04:02:50;10.50;;;5.90;;
22359;SDS011;11347;52.030;4.690;2022-11-21T04:05:16;8.90;;;5.50;;
22359;SDS011;11347;52.030;4.690;2022-11-21T04:07:41;11.47;;;6.50;;
22359;SDS011;11347;52.030;4.690;2022-11-21T04:10:07;10.43;;;6.33;;
22359;SDS011;11347;52.030;4.690;2022-11-21T04:12:33;10.07;;;6.07;;
22359;SDS011;11347;52.030;4.690;2022-11-21T04:14:58;9.60;;;6.33;;
22359;SDS011;11347;52.030;4.690;2022-11-21T04:17:24;10.67;;;6.47;;
22359;SDS011;11347;52.030;4.690;2022-11-21T04:19:49;8.60;;;5.60;;
22359;SDS011;11347;52.030;4.690;2022-11-21T04:22:15;9.13;;;5.80;;
22359;SDS011;11347;52.030;4.690;2022-11-21T04:24:40;9.67;;;6.03;;
22359;SDS011;11347;52.030;4.690;2022-11-21T04:27:06;9.83;;;6.37;;
22359;SDS011;11347;52.030;4.690;2022-11-21T04:29:31;8.77;;;5.97;;
22359;SDS011;11347;52.030;4.690;2022-11-21T04:31:57;9.90;;;6.03;;
22359;SDS011;11347;52.030;4.690;2022-11-21T04:34:22;9.07;;;5.80;;
22359;SDS011;11347;52.030;4.690;2022-11-21T04:36:48;9.50;;;6.40;;
22359;SDS011;11347;52.030;4.690;2022-11-21T04:39:13;9.57;;;6.23;;
22359;SDS011;11347;52.030;4.690;2022-11-21T04:41:39;10.37;;;6.60;;
22359;SDS011;11347;52.030;4.690;2022-11-21T04:44:04;9.80;;;6.13;;
22359;SDS011;11347;52.030;4.690;2022-11-21T04:46:30;9.33;;;6.27;;
22359;SDS011;11347;52.030;4.690;2022-11-21T04:48:55;9.30;;;6.00;;
22359;SDS011;11347;52.030;4.690;2022-11-21T04:51:21;9.50;;;6.00;;
22359;SDS011;11347;52.030;4.690;2022-11-21T04:53:46;8.27;;;5.77;;
22359;SDS011;11347;52.030;4.690;2022-11-21T04:56:12;8.67;;;5.97;;
22359;SDS011;11347;52.030;4.690;2022-11-21T04:58:41;9.40;;;6.13;;
22359;SDS011;11347;52.030;4.690;2022-11-21T05:01:08;8.60;;;5.70;;
22359;SDS011;11347;52.030;4.690;2022-11-21T05:03:34;10.10;;;5.83;;
22359;SDS011;11347;52.030;4.690;2022-11-21T05:06:00;8.80;;;6.00;;
22359;SDS011;11347;52.030;4.690;2022-11-21T05:08:25;9.83;;;5.90;;
22359;SDS011;11347;52.030;4.690;2022-11-21T05:10:51;8.77;;;5.80;;
22359;SDS011;11347;52.030;4.690;2022-11-21T05:13:35;8.93;;;5.40;;
22359;SDS011;11347;52.030;4.690;2022-11-21T05:16:00;8.20;;;5.47;;
22359;SDS011;11347;52.030;4.690;2022-11-21T05:18:26;8.73;;;5.53;;
22359;SDS011;11347;52.030;4.690;2022-11-21T05:20:52;7.23;;;5.43;;
22359;SDS011;11347;52.030;4.690;2022-11-21T05:23:18;7.70;;;5.37;;
22359;SDS011;11347;52.030;4.690;2022-11-21T05:25:43;7.93;;;5.27;;
22359;SDS011;11347;52.030;4.690;2022-11-21T05:28:09;8.83;;;5.50;;
22359;SDS011;11347;52.030;4.690;2022-11-21T05:30:34;7.60;;;5.33;;
22359;SDS011;11347;52.030;4.690;2022-11-21T05:33:01;8.27;;;5.70;;
22359;SDS011;11347;52.030;4.690;2022-11-21T05:35:27;8.47;;;5.93;;
22359;SDS011;11347;52.030;4.690;2022-11-21T05:37:56;8.77;;;5.47;;
22359;SDS011;11347;52.030;4.690;2022-11-21T05:40:22;8.37;;;5.63;;
22359;SDS011;11347;52.030;4.690;2022-11-21T05:42:48;7.47;;;5.17;;
22359;SDS011;11347;52.030;4.690;2022-11-21T05:45:32;8.40;;;5.37;;
22359;SDS011;11347;52.030;4.690;2022-11-21T05:47:58;8.67;;;5.63;;
22359;SDS011;11347;52.030;4.690;2022-11-21T05:50:23;9.27;;;5.33;;
22359;SDS011;11347;52.030;4.690;2022-11-21T05:52:49;8.27;;;5.60;;
22359;SDS011;11347;52.030;4.690;2022-11-21T05:55:14;7.90;;;5.20;;
22359;SDS011;11347;52.030;4.690;2022-11-21T05:57:40;8.77;;;5.57;;
22359;SDS011;11347;52.030;4.690;2022-11-21T06:00:06;7.00;;;4.40;;
22359;SDS011;11347;52.030;4.690;2022-11-21T06:02:32;6.77;;;4.73;;
22359;SDS011;11347;52.030;4.690;2022-11-21T06:05:16;7.40;;;4.67;;
22359;SDS011;11347;52.030;4.690;2022-11-21T06:07:42;7.03;;;4.53;;
22359;SDS011;11347;52.030;4.690;2022-11-21T06:10:07;7.33;;;4.80;;
22359;SDS011;11347;52.030;4.690;2022-11-21T06:12:33;8.80;;;4.30;;
22359;SDS011;11347;52.030;4.690;2022-11-21T06:14:59;6.77;;;4.60;;
22359;SDS011;11347;52.030;4.690;2022-11-21T06:17:24;9.73;;;5.00;;
22359;SDS011;11347;52.030;4.690;2022-11-21T06:19:50;5.60;;;4.03;;
22359;SDS011;11347;52.030;4.690;2022-11-21T06:22:16;5.83;;;4.30;;
22359;SDS011;11347;52.030;4.690;2022-11-21T06:24:42;6.93;;;4.63;;
22359;SDS011;11347;52.030;4.690;2022-11-21T06:27:07;7.13;;;4.63;;
22359;SDS011;11347;52.030;4.690;2022-11-21T06:29:33;6.40;;;4.27;;
22359;SDS011;11347;52.030;4.690;2022-11-21T06:31:58;8.17;;;4.00;;
22359;SDS011;11347;52.030;4.690;2022-11-21T06:34:25;8.07;;;5.00;;
22359;SDS011;11347;52.030;4.690;2022-11-21T06:36:50;6.27;;;4.60;;
22359;SDS011;11347;52.030;4.690;2022-11-21T06:39:16;6.87;;;4.53;;
22359;SDS011;11347;52.030;4.690;2022-11-21T06:41:41;7.50;;;4.53;;
22359;SDS011;11347;52.030;4.690;2022-11-21T06:44:07;7.40;;;4.67;;
22359;SDS011;11347;52.030;4.690;2022-11-21T06:46:33;7.73;;;5.03;;
22359;SDS011;11347;52.030;4.690;2022-11-21T06:48:58;6.50;;;4.60;;
22359;SDS011;11347;52.030;4.690;2022-11-21T06:51:24;6.83;;;4.50;;
22359;SDS011;11347;52.030;4.690;2022-11-21T06:53:56;8.37;;;4.63;;
22359;SDS011;11347;52.030;4.690;2022-11-21T06:56:23;6.67;;;4.33;;
22359;SDS011;11347;52.030;4.690;2022-11-21T06:58:50;6.93;;;4.40;;
22359;SDS011;11347;52.030;4.690;2022-11-21T07:01:16;7.70;;;4.80;;
22359;SDS011;11347;52.030;4.690;2022-11-21T07:03:42;5.93;;;4.20;;
22359;SDS011;11347;52.030;4.690;2022-11-21T07:06:07;8.40;;;4.90;;
22359;SDS011;11347;52.030;4.690;2022-11-21T07:08:33;5.87;;;3.90;;
22359;SDS011;11347;52.030;4.690;2022-11-21T07:11:01;6.57;;;4.40;;
22359;SDS011;11347;52.030;4.690;2022-11-21T07:13:31;7.10;;;4.10;;
22359;SDS011;11347;52.030;4.690;2022-11-21T07:16:01;5.93;;;4.00;;
22359;SDS011;11347;52.030;4.690;2022-11-21T07:18:28;7.37;;;4.87;;
22359;SDS011;11347;52.030;4.690;2022-11-21T07:20:57;6.10;;;4.23;;
22359;SDS011;11347;52.030;4.690;2022-11-21T07:23:24;6.37;;;4.23;;
22359;SDS011;11347;52.030;4.690;2022-11-21T07:25:49;7.20;;;4.13;;
22359;SDS011;11347;52.030;4.690;2022-11-21T07:28:15;6.83;;;4.10;;
22359;SDS011;11347;52.030;4.690;2022-11-21T07:30:41;5.57;;;3.90;;
22359;SDS011;11347;52.030;4.690;2022-11-21T07:33:06;6.00;;;3.80;;
22359;SDS011;11347;52.030;4.690;2022-11-21T07:35:33;6.13;;;3.90;;
22359;SDS011;11347;52.030;4.690;2022-11-21T07:37:59;6.13;;;4.07;;
22359;SDS011;11347;52.030;4.690;2022-11-21T07:40:25;7.50;;;3.77;;
22359;SDS011;11347;52.030;4.690;2022-11-21T07:42:51;5.27;;;3.40;;
22359;SDS011;11347;52.030;4.690;2022-11-21T07:45:16;5.20;;;3.70;;
22359;SDS011;11347;52.030;4.690;2022-11-21T07:47:42;5.47;;;3.50;;
22359;SDS011;11347;52.030;4.690;2022-11-21T07:50:08;5.97;;;3.87;;
22359;SDS011;11347;52.030;4.690;2022-11-21T07:52:35;4.80;;;3.33;;
22359;SDS011;11347;52.030;4.690;2022-11-21T07:55:01;4.80;;;3.37;;
22359;SDS011;11347;52.030;4.690;2022-11-21T07:57:28;5.30;;;3.20;;
22359;SDS011;11347;52.030;4.690;2022-11-21T07:59:56;6.77;;;3.70;;
22359;SDS011;11347;52.030;4.690;2022-11-21T08:02:22;5.80;;;3.07;;
22359;SDS011;11347;52.030;4.690;2022-11-21T08:04:49;5.67;;;3.10;;
22359;SDS011;11347;52.030;4.690;2022-11-21T08:07:15;6.20;;;3.60;;
22359;SDS011;11347;52.030;4.690;2022-11-21T08:09:42;4.83;;;3.37;;
22359;SDS011;11347;52.030;4.690;2022-11-21T08:12:08;7.03;;;3.67;;
22359;SDS011;11347;52.030;4.690;2022-11-21T08:14:34;5.27;;;3.47;;
22359;SDS011;11347;52.030;4.690;2022-11-21T08:16:59;5.80;;;3.57;;
22359;SDS011;11347;52.030;4.690;2022-11-21T08:19:25;7.33;;;3.53;;
22359;SDS011;11347;52.030;4.690;2022-11-21T08:21:50;5.67;;;3.43;;
22359;SDS011;11347;52.030;4.690;2022-11-21T08:24:16;6.50;;;3.33;;
22359;SDS011;11347;52.030;4.690;2022-11-21T08:26:42;6.87;;;3.37;;
22359;SDS011;11347;52.030;4.690;2022-11-21T08:29:08;7.00;;;3.33;;
22359;SDS011;11347;52.030;4.690;2022-11-21T08:31:35;5.23;;;3.13;;
22359;SDS011;11347;52.030;4.690;2022-11-21T08:34:01;5.70;;;3.03;;
22359;SDS011;11347;52.030;4.690;2022-11-21T08:36:26;6.43;;;3.63;;
22359;SDS011;11347;52.030;4.690;2022-11-21T08:38:52;8.60;;;3.40;;
22359;SDS011;11347;52.030;4.690;2022-11-21T08:41:17;6.77;;;2.83;;
22359;SDS011;11347;52.030;4.690;2022-11-21T08:44:02;6.10;;;3.33;;
22359;SDS011;11347;52.030;4.690;2022-11-21T08:46:28;7.43;;;3.20;;
22359;SDS011;11347;52.030;4.690;2022-11-21T08:48:57;8.37;;;3.50;;
22359;SDS011;11347;52.030;4.690;2022-11-21T08:51:23;7.37;;;3.27;;
22359;SDS011;11347;52.030;4.690;2022-11-21T08:53:49;6.13;;;3.27;;
22359;SDS011;11347;52.030;4.690;2022-11-21T08:56:14;10.17;;;3.03;;
22359;SDS011;11347;52.030;4.690;2022-11-21T08:58:40;4.07;;;2.67;;
22359;SDS011;11347;52.030;4.690;2022-11-21T09:01:06;6.97;;;2.70;;
22359;SDS011;11347;52.030;4.690;2022-11-21T09:03:31;5.50;;;3.00;;
22359;SDS011;11347;52.030;4.690;2022-11-21T09:05:57;5.57;;;2.77;;
22359;SDS011;11347;52.030;4.690;2022-11-21T09:08:24;6.63;;;2.30;;
22359;SDS011;11347;52.030;4.690;2022-11-21T09:10:50;5.43;;;2.60;;
22359;SDS011;11347;52.030;4.690;2022-11-21T09:13:16;7.33;;;2.50;;
22359;SDS011;11347;52.030;4.690;2022-11-21T09:15:41;4.07;;;2.50;;
22359;SDS011;11347;52.030;4.690;2022-11-21T09:18:25;6.30;;;2.57;;
22359;SDS011;11347;52.030;4.690;2022-11-21T09:20:51;4.67;;;2.10;;
22359;SDS011;11347;52.030;4.690;2022-11-21T09:23:16;4.77;;;2.40;;
22359;SDS011;11347;52.030;4.690;2022-11-21T09:25:42;6.40;;;2.40;;
22359;SDS011;11347;52.030;4.690;2022-11-21T09:28:09;5.77;;;2.23;;
22359;SDS011;11347;52.030;4.690;2022-11-21T09:30:35;5.87;;;2.10;;
22359;SDS011;11347;52.030;4.690;2022-11-21T09:33:05;3.43;;;1.90;;
22359;SDS011;11347;52.030;4.690;2022-11-21T09:35:32;3.83;;;1.90;;
22359;SDS011;11347;52.030;4.690;2022-11-21T09:37:58;4.03;;;2.17;;
22359;SDS011;11347;52.030;4.690;2022-11-21T09:40:24;4.17;;;2.10;;
22359;SDS011;11347;52.030;4.690;2022-11-21T09:45:45;5.03;;;2.43;;
22359;SDS011;11347;52.030;4.690;2022-11-21T09:48:14;3.97;;;2.00;;
22359;SDS011;11347;52.030;4.690;2022-11-21T09:50:48;4.40;;;1.93;;
22359;SDS011;11347;52.030;4.690;2022-11-21T09:53:19;4.73;;;1.87;;
22359;SDS011;11347;52.030;4.690;2022-11-21T09:56:05;4.90;;;1.60;;
22359;SDS011;11347;52.030;4.690;2022-11-21T09:58:36;5.33;;;2.07;;
22359;SDS011;11347;52.030;4.690;2022-11-21T10:01:13;3.97;;;1.80;;
22359;SDS011;11347;52.030;4.690;2022-11-21T10:03:41;4.23;;;1.53;;
22359;SDS011;11347;52.030;4.690;2022-11-21T10:06:13;5.13;;;1.80;;
22359;SDS011;11347;52.030;4.690;2022-11-21T10:11:42;2.40;;;1.27;;
22359;SDS011;11347;52.030;4.690;2022-11-21T10:14:41;5.87;;;1.70;;
22359;SDS011;11347;52.030;4.690;2022-11-21T10:17:21;5.33;;;1.80;;
22359;SDS011;11347;52.030;4.690;2022-11-21T10:20:48;4.93;;;1.37;;
22359;SDS011;11347;52.030;4.690;2022-11-21T10:25:50;8.47;;;1.77;;
22359;SDS011;11347;52.030;4.690;2022-11-21T10:28:33;4.10;;;1.40;;
22359;SDS011;11347;52.030;4.690;2022-11-21T10:31:16;7.23;;;1.90;;
22359;SDS011;11347;52.030;4.690;2022-11-21T10:33:43;3.83;;;1.50;;
22359;SDS011;11347;52.030;4.690;2022-11-21T10:36:15;3.97;;;1.30;;
22359;SDS011;11347;52.030;4.690;2022-11-21T10:38:55;4.93;;;1.50;;
22359;SDS011;11347;52.030;4.690;2022-11-21T10:41:50;4.57;;;1.57;;
22359;SDS011;11347;52.030;4.690;2022-11-21T10:44:24;5.83;;;1.63;;
22359;SDS011;11347;52.030;4.690;2022-11-21T10:47:16;6.10;;;1.50;;
22359;SDS011;11347;52.030;4.690;2022-11-21T10:55:27;7.30;;;1.77;;
22359;SDS011;11347;52.030;4.690;2022-11-21T10:57:52;5.30;;;1.50;;
22359;SDS011;11347;52.030;4.690;2022-11-21T11:00:20;5.30;;;1.73;;
22359;SDS011;11347;52.030;4.690;2022-11-21T11:08:05;3.73;;;1.70;;
22359;SDS011;11347;52.030;4.690;2022-11-21T11:10:36;5.57;;;1.70;;
22359;SDS011;11347;52.030;4.690;2022-11-21T11:13:13;6.70;;;1.57;;
22359;SDS011;11347;52.030;4.690;2022-11-21T11:15:55;3.97;;;1.60;;
22359;SDS011;11347;52.030;4.690;2022-11-21T11:18:36;5.27;;;1.87;;
22359;SDS011;11347;52.030;4.690;2022-11-21T11:23:41;5.27;;;1.70;;
22359;SDS011;11347;52.030;4.690;2022-11-21T11:26:21;4.93;;;1.70;;
22359;SDS011;11347;52.030;4.690;2022-11-21T11:32:12;5.70;;;1.57;;
22359;SDS011;11347;52.030;4.690;2022-11-21T11:35:26;6.57;;;2.17;;
22359;SDS011;11347;52.030;4.690;2022-11-21T11:37:50;7.00;;;2.00;;
22359;SDS011;11347;52.030;4.690;2022-11-21T11:40:31;8.10;;;2.03;;
22359;SDS011;11347;52.030;4.690;2022-11-21T11:46:08;7.53;;;1.93;;
22359;SDS011;11347;52.030;4.690;2022-11-21T11:51:55;5.90;;;1.97;;
22359;SDS011;11347;52.030;4.690;2022-11-21T11:54:26;6.20;;;2.07;;
22359;SDS011;11347;52.030;4.690;2022-11-21T11:56:57;6.90;;;2.20;;
22359;SDS011;11347;52.030;4.690;2022-11-21T11:59:25;5.93;;;2.00;;
22359;SDS011;11347;52.030;4.690;2022-11-21T12:05:05;8.33;;;1.70;;
22359;SDS011;11347;52.030;4.690;2022-11-21T12:10:45;7.67;;;2.10;;
22359;SDS011;11347;52.030;4.690;2022-11-21T12:13:36;4.67;;;1.50;;
22359;SDS011;11347;52.030;4.690;2022-11-21T12:16:03;4.87;;;1.40;;
22359;SDS011;11347;52.030;4.690;2022-11-21T12:21:15;5.03;;;1.40;;
22359;SDS011;11347;52.030;4.690;2022-11-21T12:23:54;4.70;;;1.30;;
22359;SDS011;11347;52.030;4.690;2022-11-21T12:26:39;6.17;;;1.73;;
22359;SDS011;11347;52.030;4.690;2022-11-21T12:36:56;6.23;;;1.50;;
22359;SDS011;11347;52.030;4.690;2022-11-21T12:42:05;7.93;;;1.50;;
22359;SDS011;11347;52.030;4.690;2022-11-21T12:45:28;5.40;;;1.60;;
22359;SDS011;11347;52.030;4.690;2022-11-21T13:05:03;6.10;;;1.47;;
22359;SDS011;11347;52.030;4.690;2022-11-21T13:07:33;3.63;;;1.17;;
22359;SDS011;11347;52.030;4.690;2022-11-21T13:10:00;3.03;;;1.20;;
22359;SDS011;11347;52.030;4.690;2022-11-21T13:12:47;5.50;;;1.50;;
22359;SDS011;11347;52.030;4.690;2022-11-21T13:15:27;5.00;;;1.50;;
22359;SDS011;11347;52.030;4.690;2022-11-21T13:17:58;3.83;;;1.20;;
22359;SDS011;11347;52.030;4.690;2022-11-21T13:20:31;5.43;;;1.40;;
22359;SDS011;11347;52.030;4.690;2022-11-21T13:23:01;4.70;;;1.53;;
22359;SDS011;11347;52.030;4.690;2022-11-21T13:30:52;3.10;;;1.20;;
22359;SDS011;11347;52.030;4.690;2022-11-21T13:36:07;3.13;;;1.17;;
22359;SDS011;11347;52.030;4.690;2022-11-21T13:49:32;3.67;;;1.30;;
22359;SDS011;11347;52.030;4.690;2022-11-21T13:57:53;4.33;;;1.07;;
22359;SDS011;11347;52.030;4.690;2022-11-21T14:06:12;3.57;;;1.13;;
22359;SDS011;11347;52.030;4.690;2022-11-21T14:09:54;4.33;;;1.27;;
22359;SDS011;11347;52.030;4.690;2022-11-21T14:11:52;5.67;;;1.10;;
22359;SDS011;11347;52.030;4.690;2022-11-21T14:14:24;4.60;;;1.20;;
22359;SDS011;11347;52.030;4.690;2022-11-21T14:17:18;5.33;;;1.40;;
22359;SDS011;11347;52.030;4.690;2022-11-21T14:21:02;4.70;;;1.50;;
22359;SDS011;11347;52.030;4.690;2022-11-21T14:23:19;2.20;;;0.87;;
22359;SDS011;11347;52.030;4.690;2022-11-21T14:31:06;3.13;;;1.00;;
22359;SDS011;11347;52.030;4.690;2022-11-21T14:38:52;4.17;;;1.17;;
22359;SDS011;11347;52.030;4.690;2022-11-21T14:43:48;4.90;;;1.30;;
22359;SDS011;11347;52.030;4.690;2022-11-21T14:46:35;4.73;;;1.07;;
22359;SDS011;11347;52.030;4.690;2022-11-21T14:51:39;3.60;;;1.23;;
22359;SDS011;11347;52.030;4.690;2022-11-21T14:54:09;6.30;;;1.40;;
22359;SDS011;11347;52.030;4.690;2022-11-21T14:56:38;5.37;;;1.70;;
22359;SDS011;11347;52.030;4.690;2022-11-21T14:59:05;5.23;;;1.30;;
22359;SDS011;11347;52.030;4.690;2022-11-21T15:01:39;3.93;;;1.10;;
22359;SDS011;11347;52.030;4.690;2022-11-21T15:04:07;4.37;;;1.20;;
22359;SDS011;11347;52.030;4.690;2022-11-21T15:06:42;2.40;;;1.00;;
22359;SDS011;11347;52.030;4.690;2022-11-21T15:09:12;3.83;;;1.37;;
22359;SDS011;11347;52.030;4.690;2022-11-21T15:11:42;5.10;;;1.57;;
22359;SDS011;11347;52.030;4.690;2022-11-21T15:14:18;5.57;;;1.50;;
22359;SDS011;11347;52.030;4.690;2022-11-21T15:16:47;5.17;;;1.30;;
22359;SDS011;11347;52.030;4.690;2022-11-21T15:19:17;4.67;;;1.70;;
22359;SDS011;11347;52.030;4.690;2022-11-21T15:21:45;4.40;;;1.30;;
22359;SDS011;11347;52.030;4.690;2022-11-21T15:24:14;3.13;;;1.23;;
22359;SDS011;11347;52.030;4.690;2022-11-21T15:35:26;3.37;;;1.30;;
22359;SDS011;11347;52.030;4.690;2022-11-21T15:38:12;4.43;;;1.20;;
22359;SDS011;11347;52.030;4.690;2022-11-21T15:48:48;4.60;;;1.20;;
22359;SDS011;11347;52.030;4.690;2022-11-21T15:51:16;3.53;;;1.40;;
22359;SDS011;11347;52.030;4.690;2022-11-21T15:53:43;5.83;;;1.67;;
22359;SDS011;11347;52.030;4.690;2022-11-21T15:56:10;6.30;;;1.50;;
22359;SDS011;11347;52.030;4.690;2022-11-21T15:58:37;3.37;;;1.43;;
22359;SDS011;11347;52.030;4.690;2022-11-21T16:01:03;3.00;;;1.20;;
22359;SDS011;11347;52.030;4.690;2022-11-21T16:03:29;4.10;;;1.50;;
22359;SDS011;11347;52.030;4.690;2022-11-21T16:05:54;4.27;;;1.37;;
22359;SDS011;11347;52.030;4.690;2022-11-21T16:08:20;4.83;;;1.57;;
22359;SDS011;11347;52.030;4.690;2022-11-21T16:10:46;5.10;;;1.43;;
22359;SDS011;11347;52.030;4.690;2022-11-21T16:13:11;4.53;;;1.37;;
22359;SDS011;11347;52.030;4.690;2022-11-21T16:15:37;5.53;;;1.37;;
22359;SDS011;11347;52.030;4.690;2022-11-21T16:18:03;5.40;;;1.40;;
22359;SDS011;11347;52.030;4.690;2022-11-21T16:20:28;4.17;;;1.40;;
22359;SDS011;11347;52.030;4.690;2022-11-21T16:22:54;4.40;;;1.43;;
22359;SDS011;11347;52.030;4.690;2022-11-21T16:25:19;3.27;;;1.23;;
22359;SDS011;11347;52.030;4.690;2022-11-21T16:27:45;3.47;;;1.20;;
22359;SDS011;11347;52.030;4.690;2022-11-21T16:30:11;5.37;;;1.70;;
22359;SDS011;11347;52.030;4.690;2022-11-21T16:32:37;4.93;;;1.20;;
22359;SDS011;11347;52.030;4.690;2022-11-21T16:35:03;4.97;;;1.50;;
22359;SDS011;11347;52.030;4.690;2022-11-21T16:37:30;2.83;;;1.20;;
22359;SDS011;11347;52.030;4.690;2022-11-21T16:39:56;2.53;;;1.10;;
22359;SDS011;11347;52.030;4.690;2022-11-21T16:42:21;7.07;;;1.50;;
22359;SDS011;11347;52.030;4.690;2022-11-21T16:44:47;3.47;;;1.23;;
22359;SDS011;11347;52.030;4.690;2022-11-21T16:47:12;4.23;;;1.37;;
22359;SDS011;11347;52.030;4.690;2022-11-21T16:49:38;3.43;;;1.10;;
22359;SDS011;11347;52.030;4.690;2022-11-21T16:52:08;3.60;;;1.20;;
22359;SDS011;11347;52.030;4.690;2022-11-21T16:54:34;3.77;;;1.50;;
22359;SDS011;11347;52.030;4.690;2022-11-21T16:57:00;3.40;;;1.37;;
22359;SDS011;11347;52.030;4.690;2022-11-21T16:59:25;3.47;;;1.23;;
22359;SDS011;11347;52.030;4.690;2022-11-21T17:01:51;5.37;;;1.40;;
22359;SDS011;11347;52.030;4.690;2022-11-21T17:04:16;6.93;;;1.60;;
22359;SDS011;11347;52.030;4.690;2022-11-21T17:06:42;4.23;;;1.40;;
22359;SDS011;11347;52.030;4.690;2022-11-21T17:09:08;4.47;;;1.50;;
22359;SDS011;11347;52.030;4.690;2022-11-21T17:11:33;6.47;;;1.80;;
22359;SDS011;11347;52.030;4.690;2022-11-21T17:14:00;4.13;;;1.20;;
22359;SDS011;11347;52.030;4.690;2022-11-21T17:16:27;5.40;;;1.50;;
22359;SDS011;11347;52.030;4.690;2022-11-21T17:18:54;5.73;;;1.57;;
22359;SDS011;11347;52.030;4.690;2022-11-21T17:21:21;5.47;;;1.70;;
22359;SDS011;11347;52.030;4.690;2022-11-21T17:23:47;3.97;;;1.30;;